sensor_id;sensor_type;location;lat;lon;timestamp;P1;durP1;ratioP1;P2;durP2;ratioP2
22812;SDS011;11573;51.334;3.244;2023-09-08T00:00:19;28.00;;;23.63;;
22812;SDS011;11573;51.334;3.244;2023-09-08T00:02:46;27.95;;;22.65;;
22812;SDS011;11573;51.334;3.244;2023-09-08T00:05:13;27.40;;;23.30;;
22812;SDS011;11573;51.334;3.244;2023-09-08T00:07:40;28.98;;;22.20;;
22812;SDS011;11573;51.334;3.244;2023-09-08T00:10:09;24.95;;;21.00;;
22812;SDS011;11573;51.334;3.244;2023-09-08T00:12:37;28.00;;;21.85;;
22812;SDS011;11573;51.334;3.244;2023-09-08T00:15:05;25.05;;;21.70;;
22812;SDS011;11573;51.334;3.244;2023-09-08T00:17:33;27.27;;;24.10;;
22812;SDS011;11573;51.334;3.244;2023-09-08T00:20:00;32.22;;;23.67;;
22812;SDS011;11573;51.334;3.244;2023-09-08T00:22:27;28.08;;;22.90;;
22812;SDS011;11573;51.334;3.244;2023-09-08T00:24:54;25.17;;;22.55;;
22812;SDS011;11573;51.334;3.244;2023-09-08T00:27:21;25.23;;;22.30;;
22812;SDS011;11573;51.334;3.244;2023-09-08T00:29:48;25.20;;;21.70;;
22812;SDS011;11573;51.334;3.244;2023-09-08T00:32:15;27.20;;;21.67;;
22812;SDS011;11573;51.334;3.244;2023-09-08T00:34:43;25.33;;;22.67;;
22812;SDS011;11573;51.334;3.244;2023-09-08T00:37:10;26.67;;;23.33;;
22812;SDS011;11573;51.334;3.244;2023-09-08T00:39:38;29.33;;;24.73;;
22812;SDS011;11573;51.334;3.244;2023-09-08T00:42:05;33.50;;;25.48;;
22812;SDS011;11573;51.334;3.244;2023-09-08T00:44:33;29.77;;;25.23;;
22812;SDS011;11573;51.334;3.244;2023-09-08T00:47:00;30.25;;;24.70;;
22812;SDS011;11573;51.334;3.244;2023-09-08T00:49:27;26.88;;;23.98;;
22812;SDS011;11573;51.334;3.244;2023-09-08T00:51:55;29.23;;;24.63;;
22812;SDS011;11573;51.334;3.244;2023-09-08T00:54:22;28.80;;;25.80;;
22812;SDS011;11573;51.334;3.244;2023-09-08T00:56:51;33.20;;;26.08;;
22812;SDS011;11573;51.334;3.244;2023-09-08T00:59:24;27.38;;;24.42;;
22812;SDS011;11573;51.334;3.244;2023-09-08T01:01:52;27.38;;;24.40;;
22812;SDS011;11573;51.334;3.244;2023-09-08T01:04:20;30.63;;;26.38;;
22812;SDS011;11573;51.334;3.244;2023-09-08T01:06:47;32.15;;;26.60;;
22812;SDS011;11573;51.334;3.244;2023-09-08T01:09:15;30.58;;;26.70;;
22812;SDS011;11573;51.334;3.244;2023-09-08T01:11:44;31.85;;;26.35;;
22812;SDS011;11573;51.334;3.244;2023-09-08T01:14:17;30.58;;;25.30;;
22812;SDS011;11573;51.334;3.244;2023-09-08T01:16:46;31.63;;;26.95;;
22812;SDS011;11573;51.334;3.244;2023-09-08T01:19:13;32.05;;;28.33;;
22812;SDS011;11573;51.334;3.244;2023-09-08T01:25:06;29.85;;;25.63;;
22812;SDS011;11573;51.334;3.244;2023-09-08T01:27:45;29.30;;;24.90;;
22812;SDS011;11573;51.334;3.244;2023-09-08T01:30:15;31.25;;;27.10;;
22812;SDS011;11573;51.334;3.244;2023-09-08T01:32:43;29.33;;;26.02;;
22812;SDS011;11573;51.334;3.244;2023-09-08T01:35:11;32.80;;;27.95;;
22812;SDS011;11573;51.334;3.244;2023-09-08T01:37:39;34.05;;;28.45;;
22812;SDS011;11573;51.334;3.244;2023-09-08T01:40:08;32.42;;;28.40;;
22812;SDS011;11573;51.334;3.244;2023-09-08T01:42:37;35.35;;;27.65;;
22812;SDS011;11573;51.334;3.244;2023-09-08T01:45:06;32.03;;;27.38;;
22812;SDS011;11573;51.334;3.244;2023-09-08T01:47:34;31.92;;;27.13;;
22812;SDS011;11573;51.334;3.244;2023-09-08T01:50:01;34.15;;;28.25;;
22812;SDS011;11573;51.334;3.244;2023-09-08T01:52:28;35.10;;;27.30;;
22812;SDS011;11573;51.334;3.244;2023-09-08T01:54:55;33.63;;;28.60;;
22812;SDS011;11573;51.334;3.244;2023-09-08T01:57:22;34.30;;;29.90;;
22812;SDS011;11573;51.334;3.244;2023-09-08T01:59:49;34.90;;;28.83;;
22812;SDS011;11573;51.334;3.244;2023-09-08T02:02:17;34.05;;;28.80;;
22812;SDS011;11573;51.334;3.244;2023-09-08T02:04:44;35.42;;;28.42;;
22812;SDS011;11573;51.334;3.244;2023-09-08T02:07:11;35.33;;;28.23;;
22812;SDS011;11573;51.334;3.244;2023-09-08T02:09:38;37.85;;;29.70;;
22812;SDS011;11573;51.334;3.244;2023-09-08T02:12:05;36.55;;;31.60;;
22812;SDS011;11573;51.334;3.244;2023-09-08T02:14:33;38.70;;;32.67;;
22812;SDS011;11573;51.334;3.244;2023-09-08T02:16:59;38.25;;;31.10;;
22812;SDS011;11573;51.334;3.244;2023-09-08T02:19:26;34.70;;;29.92;;
22812;SDS011;11573;51.334;3.244;2023-09-08T02:21:54;38.70;;;31.58;;
22812;SDS011;11573;51.334;3.244;2023-09-08T02:24:21;39.70;;;31.48;;
22812;SDS011;11573;51.334;3.244;2023-09-08T02:26:48;36.47;;;31.27;;
22812;SDS011;11573;51.334;3.244;2023-09-08T02:29:16;38.97;;;33.42;;
22812;SDS011;11573;51.334;3.244;2023-09-08T02:31:43;42.97;;;32.88;;
22812;SDS011;11573;51.334;3.244;2023-09-08T02:34:11;38.05;;;31.65;;
22812;SDS011;11573;51.334;3.244;2023-09-08T02:36:39;38.67;;;31.20;;
22812;SDS011;11573;51.334;3.244;2023-09-08T02:39:06;39.10;;;31.48;;
22812;SDS011;11573;51.334;3.244;2023-09-08T02:41:33;42.22;;;33.92;;
22812;SDS011;11573;51.334;3.244;2023-09-08T02:44:01;41.58;;;33.97;;
22812;SDS011;11573;51.334;3.244;2023-09-08T02:46:29;42.90;;;33.80;;
22812;SDS011;11573;51.334;3.244;2023-09-08T02:48:56;47.90;;;36.08;;
22812;SDS011;11573;51.334;3.244;2023-09-08T02:51:23;37.95;;;32.33;;
22812;SDS011;11573;51.334;3.244;2023-09-08T02:53:50;45.65;;;35.75;;
22812;SDS011;11573;51.334;3.244;2023-09-08T02:56:17;43.05;;;34.60;;
22812;SDS011;11573;51.334;3.244;2023-09-08T02:58:44;41.35;;;33.42;;
22812;SDS011;11573;51.334;3.244;2023-09-08T03:01:15;43.70;;;35.88;;
22812;SDS011;11573;51.334;3.244;2023-09-08T03:03:47;44.58;;;35.13;;
22812;SDS011;11573;51.334;3.244;2023-09-08T03:06:19;48.15;;;37.42;;
22812;SDS011;11573;51.334;3.244;2023-09-08T03:08:48;46.70;;;35.90;;
22812;SDS011;11573;51.334;3.244;2023-09-08T03:11:15;45.60;;;35.55;;
22812;SDS011;11573;51.334;3.244;2023-09-08T03:13:42;47.83;;;38.25;;
22812;SDS011;11573;51.334;3.244;2023-09-08T03:16:09;47.78;;;38.20;;
22812;SDS011;11573;51.334;3.244;2023-09-08T03:18:37;48.38;;;37.58;;
22812;SDS011;11573;51.334;3.244;2023-09-08T03:21:05;51.22;;;39.50;;
22812;SDS011;11573;51.334;3.244;2023-09-08T03:26:04;48.55;;;39.00;;
22812;SDS011;11573;51.334;3.244;2023-09-08T03:28:32;47.97;;;39.08;;
22812;SDS011;11573;51.334;3.244;2023-09-08T03:31:00;56.85;;;43.15;;
22812;SDS011;11573;51.334;3.244;2023-09-08T03:33:30;54.05;;;41.00;;
22812;SDS011;11573;51.334;3.244;2023-09-08T03:35:59;58.95;;;43.03;;
22812;SDS011;11573;51.334;3.244;2023-09-08T03:38:27;58.42;;;41.90;;
22812;SDS011;11573;51.334;3.244;2023-09-08T03:40:54;59.72;;;43.03;;
22812;SDS011;11573;51.334;3.244;2023-09-08T03:43:20;47.35;;;38.75;;
22812;SDS011;11573;51.334;3.244;2023-09-08T03:45:47;56.35;;;44.53;;
22812;SDS011;11573;51.334;3.244;2023-09-08T03:48:15;57.95;;;46.58;;
22812;SDS011;11573;51.334;3.244;2023-09-08T03:50:42;51.97;;;41.90;;
22812;SDS011;11573;51.334;3.244;2023-09-08T03:53:11;54.85;;;42.42;;
22812;SDS011;11573;51.334;3.244;2023-09-08T03:55:39;50.45;;;41.45;;
22812;SDS011;11573;51.334;3.244;2023-09-08T03:58:06;53.75;;;43.08;;
22812;SDS011;11573;51.334;3.244;2023-09-08T04:00:34;49.63;;;40.70;;
22812;SDS011;11573;51.334;3.244;2023-09-08T04:03:01;59.47;;;46.03;;
22812;SDS011;11573;51.334;3.244;2023-09-08T04:05:29;50.83;;;41.05;;
22812;SDS011;11573;51.334;3.244;2023-09-08T04:07:56;53.92;;;40.03;;
22812;SDS011;11573;51.334;3.244;2023-09-08T04:10:23;58.60;;;40.97;;
22812;SDS011;11573;51.334;3.244;2023-09-08T04:12:50;53.38;;;40.47;;
22812;SDS011;11573;51.334;3.244;2023-09-08T04:15:20;51.70;;;41.65;;
22812;SDS011;11573;51.334;3.244;2023-09-08T04:17:47;56.00;;;42.53;;
22812;SDS011;11573;51.334;3.244;2023-09-08T04:20:14;51.72;;;40.38;;
22812;SDS011;11573;51.334;3.244;2023-09-08T04:22:42;51.72;;;40.75;;
22812;SDS011;11573;51.334;3.244;2023-09-08T04:25:09;51.78;;;40.85;;
22812;SDS011;11573;51.334;3.244;2023-09-08T04:27:37;46.75;;;39.20;;
22812;SDS011;11573;51.334;3.244;2023-09-08T04:30:04;44.95;;;37.10;;
22812;SDS011;11573;51.334;3.244;2023-09-08T04:32:32;54.53;;;43.22;;
22812;SDS011;11573;51.334;3.244;2023-09-08T04:34:59;50.13;;;39.38;;
22812;SDS011;11573;51.334;3.244;2023-09-08T04:37:26;52.60;;;41.00;;
22812;SDS011;11573;51.334;3.244;2023-09-08T04:39:54;49.08;;;41.38;;
22812;SDS011;11573;51.334;3.244;2023-09-08T04:42:21;49.97;;;39.53;;
22812;SDS011;11573;51.334;3.244;2023-09-08T04:44:50;49.30;;;39.90;;
22812;SDS011;11573;51.334;3.244;2023-09-08T04:47:17;53.55;;;42.05;;
22812;SDS011;11573;51.334;3.244;2023-09-08T04:49:45;54.10;;;41.45;;
22812;SDS011;11573;51.334;3.244;2023-09-08T04:52:12;45.63;;;38.13;;
22812;SDS011;11573;51.334;3.244;2023-09-08T04:54:41;53.50;;;43.15;;
22812;SDS011;11573;51.334;3.244;2023-09-08T04:57:08;55.47;;;42.45;;
22812;SDS011;11573;51.334;3.244;2023-09-08T04:59:51;51.47;;;41.13;;
22812;SDS011;11573;51.334;3.244;2023-09-08T05:02:18;49.30;;;39.88;;
22812;SDS011;11573;51.334;3.244;2023-09-08T05:04:45;53.65;;;40.05;;
22812;SDS011;11573;51.334;3.244;2023-09-08T05:07:12;57.85;;;42.50;;
22812;SDS011;11573;51.334;3.244;2023-09-08T05:09:40;50.67;;;41.17;;
22812;SDS011;11573;51.334;3.244;2023-09-08T05:12:08;49.92;;;39.30;;
22812;SDS011;11573;51.334;3.244;2023-09-08T05:14:36;49.13;;;39.25;;
22812;SDS011;11573;51.334;3.244;2023-09-08T05:17:03;46.55;;;37.15;;
22812;SDS011;11573;51.334;3.244;2023-09-08T05:19:31;48.75;;;38.45;;
22812;SDS011;11573;51.334;3.244;2023-09-08T05:21:58;51.60;;;38.22;;
22812;SDS011;11573;51.334;3.244;2023-09-08T05:24:25;43.13;;;36.50;;
22812;SDS011;11573;51.334;3.244;2023-09-08T05:26:53;50.28;;;40.42;;
22812;SDS011;11573;51.334;3.244;2023-09-08T05:29:21;49.28;;;40.45;;
22812;SDS011;11573;51.334;3.244;2023-09-08T05:31:49;51.65;;;39.03;;
22812;SDS011;11573;51.334;3.244;2023-09-08T05:34:17;48.83;;;39.72;;
22812;SDS011;11573;51.334;3.244;2023-09-08T05:36:44;56.35;;;42.83;;
22812;SDS011;11573;51.334;3.244;2023-09-08T05:39:13;48.80;;;39.15;;
22812;SDS011;11573;51.334;3.244;2023-09-08T05:41:41;47.00;;;36.63;;
22812;SDS011;11573;51.334;3.244;2023-09-08T05:44:08;52.78;;;40.80;;
22812;SDS011;11573;51.334;3.244;2023-09-08T05:46:35;49.42;;;38.58;;
22812;SDS011;11573;51.334;3.244;2023-09-08T05:49:02;55.45;;;41.17;;
22812;SDS011;11573;51.334;3.244;2023-09-08T05:51:30;44.58;;;35.67;;
22812;SDS011;11573;51.334;3.244;2023-09-08T05:53:59;44.75;;;37.45;;
22812;SDS011;11573;51.334;3.244;2023-09-08T05:56:29;50.22;;;38.70;;
22812;SDS011;11573;51.334;3.244;2023-09-08T05:59:00;40.33;;;34.53;;
22812;SDS011;11573;51.334;3.244;2023-09-08T06:01:28;45.70;;;36.00;;
22812;SDS011;11573;51.334;3.244;2023-09-08T06:03:56;44.17;;;34.78;;
22812;SDS011;11573;51.334;3.244;2023-09-08T06:06:26;47.55;;;39.95;;
22812;SDS011;11573;51.334;3.244;2023-09-08T06:08:54;44.03;;;36.20;;
22812;SDS011;11573;51.334;3.244;2023-09-08T06:11:22;44.78;;;36.47;;
22812;SDS011;11573;51.334;3.244;2023-09-08T06:13:49;43.70;;;37.47;;
22812;SDS011;11573;51.334;3.244;2023-09-08T06:16:16;41.38;;;34.55;;
22812;SDS011;11573;51.334;3.244;2023-09-08T06:18:43;43.55;;;37.97;;
22812;SDS011;11573;51.334;3.244;2023-09-08T06:21:14;41.75;;;37.00;;
22812;SDS011;11573;51.334;3.244;2023-09-08T06:23:42;40.00;;;32.53;;
22812;SDS011;11573;51.334;3.244;2023-09-08T06:26:11;36.78;;;32.60;;
22812;SDS011;11573;51.334;3.244;2023-09-08T06:28:38;45.22;;;37.28;;
22812;SDS011;11573;51.334;3.244;2023-09-08T06:31:08;45.13;;;35.40;;
22812;SDS011;11573;51.334;3.244;2023-09-08T06:33:37;41.47;;;32.67;;
22812;SDS011;11573;51.334;3.244;2023-09-08T06:36:05;36.28;;;32.45;;
22812;SDS011;11573;51.334;3.244;2023-09-08T06:38:33;42.10;;;36.85;;
22812;SDS011;11573;51.334;3.244;2023-09-08T06:41:07;35.40;;;31.13;;
22812;SDS011;11573;51.334;3.244;2023-09-08T06:43:36;42.33;;;34.57;;
22812;SDS011;11573;51.334;3.244;2023-09-08T06:46:09;38.63;;;32.53;;
22812;SDS011;11573;51.334;3.244;2023-09-08T06:48:36;41.72;;;34.67;;
22812;SDS011;11573;51.334;3.244;2023-09-08T06:51:04;43.05;;;33.60;;
22812;SDS011;11573;51.334;3.244;2023-09-08T06:53:32;36.83;;;31.58;;
22812;SDS011;11573;51.334;3.244;2023-09-08T06:55:59;33.22;;;28.65;;
22812;SDS011;11573;51.334;3.244;2023-09-08T06:58:27;41.85;;;31.33;;
22812;SDS011;11573;51.334;3.244;2023-09-08T07:00:55;36.30;;;32.17;;
22812;SDS011;11573;51.334;3.244;2023-09-08T07:03:23;35.85;;;29.70;;
22812;SDS011;11573;51.334;3.244;2023-09-08T07:05:50;43.15;;;32.63;;
22812;SDS011;11573;51.334;3.244;2023-09-08T07:08:18;33.88;;;30.17;;
22812;SDS011;11573;51.334;3.244;2023-09-08T07:10:45;35.30;;;28.48;;
22812;SDS011;11573;51.334;3.244;2023-09-08T07:13:18;34.40;;;28.70;;
22812;SDS011;11573;51.334;3.244;2023-09-08T07:15:45;31.90;;;28.17;;
22812;SDS011;11573;51.334;3.244;2023-09-08T07:18:12;35.85;;;28.67;;
22812;SDS011;11573;51.334;3.244;2023-09-08T07:20:39;33.72;;;29.45;;
22812;SDS011;11573;51.334;3.244;2023-09-08T07:23:06;29.67;;;25.98;;
22812;SDS011;11573;51.334;3.244;2023-09-08T07:25:34;27.50;;;24.50;;
22812;SDS011;11573;51.334;3.244;2023-09-08T07:28:01;28.35;;;23.92;;
22812;SDS011;11573;51.334;3.244;2023-09-08T07:30:28;28.13;;;23.30;;
22812;SDS011;11573;51.334;3.244;2023-09-08T07:32:58;26.58;;;23.73;;
22812;SDS011;11573;51.334;3.244;2023-09-08T07:35:25;26.45;;;23.17;;
22812;SDS011;11573;51.334;3.244;2023-09-08T07:37:52;29.58;;;24.27;;
22812;SDS011;11573;51.334;3.244;2023-09-08T07:40:19;30.58;;;24.10;;
22812;SDS011;11573;51.334;3.244;2023-09-08T07:42:46;31.50;;;23.30;;
22812;SDS011;11573;51.334;3.244;2023-09-08T07:45:13;24.25;;;21.58;;
22812;SDS011;11573;51.334;3.244;2023-09-08T07:47:40;26.63;;;21.85;;
22812;SDS011;11573;51.334;3.244;2023-09-08T07:50:20;26.67;;;23.50;;
22812;SDS011;11573;51.334;3.244;2023-09-08T07:52:49;27.10;;;21.65;;
22812;SDS011;11573;51.334;3.244;2023-09-08T07:55:18;22.52;;;19.48;;
22812;SDS011;11573;51.334;3.244;2023-09-08T07:57:45;23.85;;;21.20;;
22812;SDS011;11573;51.334;3.244;2023-09-08T08:00:12;23.05;;;19.23;;
22812;SDS011;11573;51.334;3.244;2023-09-08T08:02:41;27.55;;;20.05;;
22812;SDS011;11573;51.334;3.244;2023-09-08T08:05:10;24.05;;;17.67;;
22812;SDS011;11573;51.334;3.244;2023-09-08T08:07:38;26.67;;;21.73;;
22812;SDS011;11573;51.334;3.244;2023-09-08T08:10:06;21.95;;;18.83;;
22812;SDS011;11573;51.334;3.244;2023-09-08T08:12:33;29.23;;;20.98;;
22812;SDS011;11573;51.334;3.244;2023-09-08T08:15:01;21.48;;;18.67;;
22812;SDS011;11573;51.334;3.244;2023-09-08T08:17:28;27.17;;;20.35;;
22812;SDS011;11573;51.334;3.244;2023-09-08T08:19:56;21.67;;;18.63;;
22812;SDS011;11573;51.334;3.244;2023-09-08T08:22:33;22.13;;;16.83;;
22812;SDS011;11573;51.334;3.244;2023-09-08T08:25:00;21.30;;;18.15;;
22812;SDS011;11573;51.334;3.244;2023-09-08T08:27:28;22.20;;;17.77;;
22812;SDS011;11573;51.334;3.244;2023-09-08T08:29:57;21.15;;;16.88;;
22812;SDS011;11573;51.334;3.244;2023-09-08T08:32:27;19.27;;;17.20;;
22812;SDS011;11573;51.334;3.244;2023-09-08T08:34:54;19.73;;;16.48;;
22812;SDS011;11573;51.334;3.244;2023-09-08T08:37:22;20.27;;;13.77;;
22812;SDS011;11573;51.334;3.244;2023-09-08T08:39:49;17.75;;;15.82;;
22812;SDS011;11573;51.334;3.244;2023-09-08T08:42:16;22.50;;;17.50;;
22812;SDS011;11573;51.334;3.244;2023-09-08T08:44:44;22.13;;;18.20;;
22812;SDS011;11573;51.334;3.244;2023-09-08T08:47:12;20.52;;;16.38;;
22812;SDS011;11573;51.334;3.244;2023-09-08T08:49:40;19.52;;;16.40;;
22812;SDS011;11573;51.334;3.244;2023-09-08T08:52:13;25.58;;;20.45;;
22812;SDS011;11573;51.334;3.244;2023-09-08T08:54:41;21.67;;;18.73;;
22812;SDS011;11573;51.334;3.244;2023-09-08T08:57:09;22.35;;;19.95;;
22812;SDS011;11573;51.334;3.244;2023-09-08T08:59:38;23.60;;;18.27;;
22812;SDS011;11573;51.334;3.244;2023-09-08T09:02:05;26.13;;;20.63;;
22812;SDS011;11573;51.334;3.244;2023-09-08T09:04:34;25.10;;;22.35;;
22812;SDS011;11573;51.334;3.244;2023-09-08T09:07:04;22.75;;;18.10;;
22812;SDS011;11573;51.334;3.244;2023-09-08T09:09:32;20.13;;;17.83;;
22812;SDS011;11573;51.334;3.244;2023-09-08T09:12:00;22.48;;;19.52;;
22812;SDS011;11573;51.334;3.244;2023-09-08T09:14:32;21.35;;;17.55;;
22812;SDS011;11573;51.334;3.244;2023-09-08T09:17:00;21.85;;;18.08;;
22812;SDS011;11573;51.334;3.244;2023-09-08T09:19:27;22.10;;;18.48;;
22812;SDS011;11573;51.334;3.244;2023-09-08T09:21:56;21.88;;;17.65;;
22812;SDS011;11573;51.334;3.244;2023-09-08T09:24:31;24.35;;;19.10;;
22812;SDS011;11573;51.334;3.244;2023-09-08T09:27:00;23.15;;;19.55;;
22812;SDS011;11573;51.334;3.244;2023-09-08T09:29:27;23.83;;;19.17;;
22812;SDS011;11573;51.334;3.244;2023-09-08T09:31:55;22.92;;;18.90;;
22812;SDS011;11573;51.334;3.244;2023-09-08T09:34:24;22.20;;;19.15;;
22812;SDS011;11573;51.334;3.244;2023-09-08T09:36:51;20.42;;;18.10;;
22812;SDS011;11573;51.334;3.244;2023-09-08T09:39:19;24.38;;;20.23;;
22812;SDS011;11573;51.334;3.244;2023-09-08T09:41:48;20.35;;;17.33;;
22812;SDS011;11573;51.334;3.244;2023-09-08T09:44:15;22.25;;;19.60;;
22812;SDS011;11573;51.334;3.244;2023-09-08T09:46:43;20.35;;;18.15;;
22812;SDS011;11573;51.334;3.244;2023-09-08T09:49:15;23.80;;;17.17;;
22812;SDS011;11573;51.334;3.244;2023-09-08T09:51:47;23.27;;;18.15;;
22812;SDS011;11573;51.334;3.244;2023-09-08T09:54:14;22.63;;;17.60;;
22812;SDS011;11573;51.334;3.244;2023-09-08T09:56:41;25.92;;;21.27;;
22812;SDS011;11573;51.334;3.244;2023-09-08T09:59:12;24.15;;;18.73;;
22812;SDS011;11573;51.334;3.244;2023-09-08T10:01:40;27.25;;;22.08;;
22812;SDS011;11573;51.334;3.244;2023-09-08T10:04:09;28.02;;;24.83;;
22812;SDS011;11573;51.334;3.244;2023-09-08T10:06:38;34.72;;;24.88;;
22812;SDS011;11573;51.334;3.244;2023-09-08T10:09:06;37.95;;;29.40;;
22812;SDS011;11573;51.334;3.244;2023-09-08T10:14:16;52.50;;;40.28;;
22812;SDS011;11573;51.334;3.244;2023-09-08T10:16:45;52.63;;;44.55;;
22812;SDS011;11573;51.334;3.244;2023-09-08T10:19:16;62.13;;;50.35;;
22812;SDS011;11573;51.334;3.244;2023-09-08T10:21:46;60.80;;;45.50;;
22812;SDS011;11573;51.334;3.244;2023-09-08T10:24:16;63.90;;;53.13;;
22812;SDS011;11573;51.334;3.244;2023-09-08T10:26:58;59.30;;;51.35;;
22812;SDS011;11573;51.334;3.244;2023-09-08T10:29:47;62.88;;;54.42;;
22812;SDS011;11573;51.334;3.244;2023-09-08T10:32:16;68.22;;;55.05;;
22812;SDS011;11573;51.334;3.244;2023-09-08T10:34:44;70.00;;;53.80;;
22812;SDS011;11573;51.334;3.244;2023-09-08T10:37:26;59.53;;;49.08;;
22812;SDS011;11573;51.334;3.244;2023-09-08T10:39:56;67.72;;;55.35;;
22812;SDS011;11573;51.334;3.244;2023-09-08T10:43:06;59.78;;;51.33;;
22812;SDS011;11573;51.334;3.244;2023-09-08T10:45:34;67.07;;;52.92;;
22812;SDS011;11573;51.334;3.244;2023-09-08T10:48:01;69.57;;;55.42;;
22812;SDS011;11573;51.334;3.244;2023-09-08T10:50:35;63.90;;;52.25;;
22812;SDS011;11573;51.334;3.244;2023-09-08T10:53:12;67.15;;;52.33;;
22812;SDS011;11573;51.334;3.244;2023-09-08T10:55:42;70.53;;;55.60;;
22812;SDS011;11573;51.334;3.244;2023-09-08T10:58:38;63.50;;;53.17;;
22812;SDS011;11573;51.334;3.244;2023-09-08T11:01:16;63.47;;;52.63;;
22812;SDS011;11573;51.334;3.244;2023-09-08T11:03:45;69.47;;;52.20;;
22812;SDS011;11573;51.334;3.244;2023-09-08T11:06:16;63.42;;;52.20;;
22812;SDS011;11573;51.334;3.244;2023-09-08T11:08:45;62.80;;;49.95;;
22812;SDS011;11573;51.334;3.244;2023-09-08T11:11:14;64.75;;;51.70;;
22812;SDS011;11573;51.334;3.244;2023-09-08T11:13:42;56.47;;;46.65;;
22812;SDS011;11573;51.334;3.244;2023-09-08T11:16:13;66.30;;;50.42;;
22812;SDS011;11573;51.334;3.244;2023-09-08T11:18:41;60.78;;;49.53;;
22812;SDS011;11573;51.334;3.244;2023-09-08T11:21:11;60.10;;;47.95;;
22812;SDS011;11573;51.334;3.244;2023-09-08T11:23:38;60.33;;;46.97;;
22812;SDS011;11573;51.334;3.244;2023-09-08T11:26:06;63.85;;;50.30;;
22812;SDS011;11573;51.334;3.244;2023-09-08T11:28:35;56.10;;;44.92;;
22812;SDS011;11573;51.334;3.244;2023-09-08T11:31:03;54.10;;;43.10;;
22812;SDS011;11573;51.334;3.244;2023-09-08T11:33:33;55.75;;;44.33;;
22812;SDS011;11573;51.334;3.244;2023-09-08T11:36:01;54.65;;;46.25;;
22812;SDS011;11573;51.334;3.244;2023-09-08T11:38:28;52.85;;;41.60;;
22812;SDS011;11573;51.334;3.244;2023-09-08T11:40:57;55.75;;;44.78;;
22812;SDS011;11573;51.334;3.244;2023-09-08T11:43:25;57.97;;;45.60;;
22812;SDS011;11573;51.334;3.244;2023-09-08T11:45:53;53.40;;;42.35;;
22812;SDS011;11573;51.334;3.244;2023-09-08T11:48:22;57.97;;;44.25;;
22812;SDS011;11573;51.334;3.244;2023-09-08T11:50:54;59.13;;;45.47;;
22812;SDS011;11573;51.334;3.244;2023-09-08T11:53:21;56.33;;;43.85;;
22812;SDS011;11573;51.334;3.244;2023-09-08T11:55:49;55.05;;;40.92;;
22812;SDS011;11573;51.334;3.244;2023-09-08T11:58:18;58.70;;;44.95;;
22812;SDS011;11573;51.334;3.244;2023-09-08T12:00:46;55.30;;;43.50;;
22812;SDS011;11573;51.334;3.244;2023-09-08T12:03:15;51.45;;;39.75;;
22812;SDS011;11573;51.334;3.244;2023-09-08T12:05:50;48.88;;;42.47;;
22812;SDS011;11573;51.334;3.244;2023-09-08T12:08:19;54.42;;;41.40;;
22812;SDS011;11573;51.334;3.244;2023-09-08T12:10:46;52.75;;;44.17;;
22812;SDS011;11573;51.334;3.244;2023-09-08T12:13:19;52.08;;;42.53;;
22812;SDS011;11573;51.334;3.244;2023-09-08T12:15:47;54.50;;;45.33;;
22812;SDS011;11573;51.334;3.244;2023-09-08T12:18:15;53.30;;;44.20;;
22812;SDS011;11573;51.334;3.244;2023-09-08T12:20:42;59.80;;;45.83;;
22812;SDS011;11573;51.334;3.244;2023-09-08T12:23:17;56.60;;;42.97;;
22812;SDS011;11573;51.334;3.244;2023-09-08T12:25:46;60.03;;;45.63;;
22812;SDS011;11573;51.334;3.244;2023-09-08T12:28:15;66.65;;;47.97;;
22812;SDS011;11573;51.334;3.244;2023-09-08T12:30:44;56.08;;;44.13;;
22812;SDS011;11573;51.334;3.244;2023-09-08T12:33:11;55.83;;;45.25;;
22812;SDS011;11573;51.334;3.244;2023-09-08T12:35:45;59.50;;;47.97;;
22812;SDS011;11573;51.334;3.244;2023-09-08T12:38:14;58.35;;;43.72;;
22812;SDS011;11573;51.334;3.244;2023-09-08T12:40:41;56.58;;;45.38;;
22812;SDS011;11573;51.334;3.244;2023-09-08T12:43:08;54.55;;;43.08;;
22812;SDS011;11573;51.334;3.244;2023-09-08T12:45:52;56.55;;;44.25;;
22812;SDS011;11573;51.334;3.244;2023-09-08T12:48:19;57.15;;;44.65;;
22812;SDS011;11573;51.334;3.244;2023-09-08T12:50:46;51.60;;;43.03;;
22812;SDS011;11573;51.334;3.244;2023-09-08T12:53:15;54.17;;;44.35;;
22812;SDS011;11573;51.334;3.244;2023-09-08T12:55:44;52.53;;;42.40;;
22812;SDS011;11573;51.334;3.244;2023-09-08T12:58:11;53.80;;;40.72;;
22812;SDS011;11573;51.334;3.244;2023-09-08T13:00:38;50.17;;;41.53;;
22812;SDS011;11573;51.334;3.244;2023-09-08T13:03:05;47.75;;;39.88;;
22812;SDS011;11573;51.334;3.244;2023-09-08T13:05:32;58.63;;;45.00;;
22812;SDS011;11573;51.334;3.244;2023-09-08T13:08:03;53.80;;;41.08;;
22812;SDS011;11573;51.334;3.244;2023-09-08T13:10:30;50.00;;;41.22;;
22812;SDS011;11573;51.334;3.244;2023-09-08T13:12:57;54.58;;;44.75;;
22812;SDS011;11573;51.334;3.244;2023-09-08T13:15:24;52.97;;;41.08;;
22812;SDS011;11573;51.334;3.244;2023-09-08T13:17:51;47.35;;;38.92;;
22812;SDS011;11573;51.334;3.244;2023-09-08T13:20:18;51.53;;;40.70;;
22812;SDS011;11573;51.334;3.244;2023-09-08T13:22:46;52.35;;;40.30;;
22812;SDS011;11573;51.334;3.244;2023-09-08T13:25:13;47.13;;;40.35;;
22812;SDS011;11573;51.334;3.244;2023-09-08T13:27:40;54.20;;;42.08;;
22812;SDS011;11573;51.334;3.244;2023-09-08T13:30:11;48.50;;;38.50;;
22812;SDS011;11573;51.334;3.244;2023-09-08T13:32:40;46.38;;;38.40;;
22812;SDS011;11573;51.334;3.244;2023-09-08T13:35:09;47.38;;;38.97;;
22812;SDS011;11573;51.334;3.244;2023-09-08T13:37:36;43.72;;;37.90;;
22812;SDS011;11573;51.334;3.244;2023-09-08T13:40:06;40.97;;;35.78;;
22812;SDS011;11573;51.334;3.244;2023-09-08T13:42:35;42.35;;;33.65;;
22812;SDS011;11573;51.334;3.244;2023-09-08T13:45:04;47.92;;;39.45;;
22812;SDS011;11573;51.334;3.244;2023-09-08T13:47:31;45.88;;;36.13;;
22812;SDS011;11573;51.334;3.244;2023-09-08T13:50:00;44.90;;;35.40;;
22812;SDS011;11573;51.334;3.244;2023-09-08T13:52:30;49.78;;;37.42;;
22812;SDS011;11573;51.334;3.244;2023-09-08T13:55:01;39.25;;;32.88;;
22812;SDS011;11573;51.334;3.244;2023-09-08T13:57:37;46.40;;;36.17;;
22812;SDS011;11573;51.334;3.244;2023-09-08T14:00:07;40.70;;;34.05;;
22812;SDS011;11573;51.334;3.244;2023-09-08T14:02:41;43.28;;;34.35;;
22812;SDS011;11573;51.334;3.244;2023-09-08T14:05:16;41.30;;;34.45;;
22812;SDS011;11573;51.334;3.244;2023-09-08T14:07:46;45.10;;;37.17;;
22812;SDS011;11573;51.334;3.244;2023-09-08T14:10:22;38.67;;;32.55;;
22812;SDS011;11573;51.334;3.244;2023-09-08T14:12:52;45.45;;;35.33;;
22812;SDS011;11573;51.334;3.244;2023-09-08T14:15:20;45.85;;;35.90;;
22812;SDS011;11573;51.334;3.244;2023-09-08T14:17:47;46.42;;;35.60;;
22812;SDS011;11573;51.334;3.244;2023-09-08T14:20:14;43.75;;;34.95;;
22812;SDS011;11573;51.334;3.244;2023-09-08T14:22:41;43.53;;;34.85;;
22812;SDS011;11573;51.334;3.244;2023-09-08T14:25:08;40.45;;;31.30;;
22812;SDS011;11573;51.334;3.244;2023-09-08T14:27:36;41.33;;;34.45;;
22812;SDS011;11573;51.334;3.244;2023-09-08T14:30:04;35.63;;;29.80;;
22812;SDS011;11573;51.334;3.244;2023-09-08T14:32:32;34.75;;;29.48;;
22812;SDS011;11573;51.334;3.244;2023-09-08T14:34:59;37.33;;;29.60;;
22812;SDS011;11573;51.334;3.244;2023-09-08T14:37:26;35.03;;;27.90;;